Aviation Digital Data Service (ADDS)

Output produced by TAFs form (0837 UTC 22 February 2017)
found at http://aviationweather.gov/adds/tafs/
 
KTCS 220537Z 2206/2306 29005KT P6SM SKC 
     FM221800 16007KT P6SM FEW250 
     FM222100 21014G20KT P6SM SCT250 
     FM230200 24008KT P6SM FEW250